createdAt,value
2018-08-13T00:00:15.081Z,17.79
2018-08-13T00:02:42.719Z,17.76
2018-08-13T00:05:10.387Z,17.72
2018-08-13T00:07:38.381Z,17.69
2018-08-13T00:10:05.999Z,17.66
2018-08-13T00:12:33.615Z,17.63
2018-08-13T00:15:01.786Z,17.60
2018-08-13T00:17:29.688Z,17.57
2018-08-13T00:19:57.274Z,17.54
2018-08-13T00:22:24.875Z,17.54
2018-08-13T00:24:52.478Z,17.54
2018-08-13T00:27:20.328Z,17.56
2018-08-13T00:29:49.075Z,17.60
2018-08-13T00:32:16.707Z,17.66
2018-08-13T00:34:44.625Z,17.70
2018-08-13T00:37:12.890Z,17.70
2018-08-13T00:39:40.531Z,17.70
2018-08-13T00:42:08.126Z,17.67
2018-08-13T00:44:36.197Z,17.65
2018-08-13T00:47:05.419Z,17.61
2018-08-13T00:49:34.361Z,17.55
2018-08-13T00:52:02.273Z,17.50
2018-08-13T00:54:29.906Z,17.45
2018-08-13T00:56:57.544Z,17.42
2018-08-13T00:59:26.302Z,17.38
2018-08-13T01:01:54.229Z,17.35
2018-08-13T01:04:21.874Z,17.34
2018-08-13T01:06:49.514Z,17.35
2018-08-13T01:09:17.141Z,17.36
2018-08-13T01:11:44.800Z,17.38
2018-08-13T01:14:12.378Z,17.45
2018-08-13T01:16:40.006Z,17.51
2018-08-13T01:19:07.986Z,17.57
2018-08-13T01:24:14.492Z,17.66
2018-08-13T01:26:42.126Z,17.68
2018-08-13T01:29:10.627Z,17.72
2018-08-13T01:31:38.576Z,17.73
2018-08-13T01:34:06.201Z,17.73
2018-08-13T01:36:34.835Z,17.72
2018-08-13T01:39:02.490Z,17.72
2018-08-13T01:41:30.129Z,17.70
2018-08-13T01:43:57.754Z,17.69
2018-08-13T01:46:25.375Z,17.68
2018-08-13T01:48:53.309Z,17.67
2018-08-13T01:51:20.961Z,17.67
2018-08-13T01:53:49.166Z,17.67
2018-08-13T01:56:17.745Z,17.69
2018-08-13T01:58:45.357Z,17.67
2018-08-13T02:01:13.532Z,17.64
2018-08-13T02:03:41.146Z,17.62
2018-08-13T02:06:09.108Z,17.60
2018-08-13T02:08:36.762Z,17.58
2018-08-13T02:11:05.847Z,17.54
2018-08-13T02:13:34.406Z,17.51
2018-08-13T02:16:02.516Z,17.47
2018-08-13T02:18:30.750Z,17.44
2018-08-13T02:20:58.373Z,17.42
2018-08-13T02:23:25.979Z,17.42
2018-08-13T02:25:54.047Z,17.39
2018-08-13T02:28:21.659Z,17.36
2018-08-13T02:30:49.263Z,17.33
2018-08-13T02:33:16.941Z,17.30
2018-08-13T02:38:27.027Z,17.19
2018-08-13T02:40:54.658Z,17.11
2018-08-13T02:43:22.556Z,17.05
2018-08-13T02:45:50.180Z,17.01
2018-08-13T02:48:17.803Z,16.99
2018-08-13T02:50:45.729Z,16.98
2018-08-13T02:53:13.959Z,16.97
2018-08-13T02:55:41.597Z,17.02
2018-08-13T02:58:10.214Z,17.06
2018-08-13T03:00:38.141Z,17.13
2018-08-13T03:03:05.808Z,17.19
2018-08-13T03:05:33.456Z,17.25
2018-08-13T03:08:01.426Z,17.30
2018-08-13T03:10:29.459Z,17.35
2018-08-13T03:12:57.095Z,17.38
2018-08-13T03:15:24.744Z,17.38
2018-08-13T03:17:52.371Z,17.37
2018-08-13T03:20:20.314Z,17.36
2018-08-13T03:22:47.955Z,17.34
2018-08-13T03:25:15.537Z,17.32
2018-08-13T03:27:43.142Z,17.27
2018-08-13T03:30:11.035Z,17.25
2018-08-13T03:32:38.732Z,17.18
2018-08-13T03:35:06.374Z,17.13
2018-08-13T03:37:34.015Z,17.09
2018-08-13T03:40:01.921Z,17.06
2018-08-13T03:42:29.538Z,17.02
2018-08-13T03:44:57.166Z,16.99
2018-08-13T03:47:24.766Z,16.98
2018-08-13T03:49:52.687Z,16.97
2018-08-13T03:52:20.274Z,16.97
2018-08-13T03:54:47.888Z,16.96
2018-08-13T03:57:15.503Z,16.95
2018-08-13T03:59:43.496Z,16.95
2018-08-13T04:02:11.115Z,16.97
2018-08-13T04:04:38.700Z,17.03
2018-08-13T04:07:06.346Z,17.10
2018-08-13T04:09:35.302Z,17.17
2018-08-13T04:12:03.635Z,17.25
2018-08-13T04:14:32.446Z,17.26
2018-08-13T04:17:04.186Z,17.26
2018-08-13T04:19:33.756Z,17.23
2018-08-13T04:22:02.570Z,17.19
2018-08-13T04:24:30.266Z,17.20
2018-08-13T04:26:58.298Z,17.25
2018-08-13T04:29:26.343Z,17.34
2018-08-13T04:31:53.982Z,17.43
2018-08-13T04:34:21.664Z,17.52
2018-08-13T04:36:49.614Z,17.63
2018-08-13T04:39:17.199Z,17.74
2018-08-13T04:41:44.919Z,17.84
2018-08-13T04:44:14.438Z,17.94
2018-08-13T04:46:42.051Z,18.06
2018-08-13T04:49:09.640Z,18.28
2018-08-13T04:51:38.547Z,18.57
2018-08-13T04:54:06.344Z,18.85
2018-08-13T04:56:34.744Z,19.08
2018-08-13T04:59:03.035Z,19.28
2018-08-13T05:01:30.648Z,19.46
2018-08-13T05:03:58.338Z,19.64
2018-08-13T05:06:27.083Z,19.82
2018-08-13T05:08:55.526Z,20.01
2018-08-13T05:11:23.158Z,20.22
2018-08-13T05:13:51.037Z,20.41
2018-08-13T05:16:18.640Z,20.57
2018-08-13T05:18:46.234Z,20.70
2018-08-13T05:21:14.145Z,20.86
2018-08-13T05:23:42.606Z,21.04
2018-08-13T05:26:10.232Z,21.22
2018-08-13T05:28:38.320Z,21.40
2018-08-13T05:31:05.910Z,21.55
2018-08-13T05:33:33.488Z,21.65
2018-08-13T05:36:01.360Z,21.72
2018-08-13T05:38:28.976Z,21.74
2018-08-13T05:40:56.595Z,21.74
2018-08-13T05:43:24.494Z,21.72
2018-08-13T05:45:52.334Z,21.70
2018-08-13T05:48:19.930Z,21.73
2018-08-13T05:50:49.438Z,21.75
2018-08-13T05:53:17.877Z,21.76
2018-08-13T05:55:45.543Z,21.78
2018-08-13T05:58:13.725Z,21.78
2018-08-13T06:00:43.234Z,21.76
2018-08-13T06:03:10.936Z,21.72
2018-08-13T06:05:39.848Z,21.68
2018-08-13T06:08:07.434Z,21.61
2018-08-13T06:10:35.018Z,21.56
2018-08-13T06:13:02.652Z,21.50
2018-08-13T06:15:30.222Z,21.40
2018-08-13T06:17:58.912Z,21.28
2018-08-13T06:20:27.050Z,21.21
2018-08-13T06:22:54.700Z,21.14
2018-08-13T06:25:23.310Z,21.07
2018-08-13T06:27:54.470Z,20.99
2018-08-13T06:30:22.054Z,20.62
2018-08-13T06:32:50.875Z,20.26
2018-08-13T06:35:18.515Z,20.04
2018-08-13T06:37:46.159Z,19.91
2018-08-13T06:40:14.296Z,19.84
2018-08-13T06:42:42.709Z,19.82
2018-08-13T06:45:10.654Z,19.82
2018-08-13T06:47:39.624Z,19.82
2018-08-13T06:50:10.904Z,19.78
2018-08-13T06:52:38.486Z,19.70
2018-08-13T06:55:07.761Z,19.63
2018-08-13T06:57:35.719Z,19.57
2018-08-13T07:00:03.361Z,19.44
2018-08-13T07:02:31.353Z,19.32
2018-08-13T07:05:00.329Z,19.27
2018-08-13T07:07:27.979Z,19.26
2018-08-13T07:09:55.969Z,19.25
2018-08-13T07:12:23.585Z,19.29
2018-08-13T07:14:52.065Z,19.33
2018-08-13T07:17:21.900Z,19.39
2018-08-13T07:19:49.632Z,19.47
2018-08-13T07:22:17.922Z,19.50
2018-08-13T07:24:46.427Z,19.51
2018-08-13T07:27:14.070Z,19.49
2018-08-13T07:29:42.707Z,19.49
2018-08-13T07:32:10.658Z,19.49
2018-08-13T07:34:40.211Z,19.52
2018-08-13T07:37:07.867Z,19.55
2018-08-13T07:39:36.836Z,19.57
2018-08-13T07:42:04.459Z,19.57
2018-08-13T07:44:34.088Z,19.58
2018-08-13T07:47:02.303Z,19.63
2018-08-13T07:49:31.237Z,19.68
2018-08-13T07:51:58.821Z,19.73
2018-08-13T07:54:26.714Z,19.80
2018-08-13T07:56:58.502Z,19.86
2018-08-13T07:59:26.170Z,19.95
2018-08-13T08:01:56.517Z,20.06
2018-08-13T08:04:25.283Z,20.20
2018-08-13T08:06:54.631Z,20.31
2018-08-13T08:09:22.494Z,20.41
2018-08-13T08:11:51.484Z,20.46
2018-08-13T08:14:19.091Z,20.48
2018-08-13T08:16:51.433Z,20.49
2018-08-13T08:19:19.025Z,20.48
2018-08-13T08:21:46.752Z,20.47
2018-08-13T08:24:15.327Z,20.36
2018-08-13T08:26:43.973Z,20.17
2018-08-13T08:29:12.565Z,20.06
2018-08-13T08:31:41.346Z,20.02
2018-08-13T08:34:09.567Z,20.06
2018-08-13T08:36:37.135Z,20.15
2018-08-13T08:39:06.295Z,20.22
2018-08-13T08:41:34.797Z,20.27
2018-08-13T08:44:02.434Z,20.32
2018-08-13T08:46:30.338Z,20.34
2018-08-13T08:48:58.154Z,20.39
2018-08-13T08:51:25.762Z,20.46
2018-08-13T08:54:00.052Z,20.53
2018-08-13T08:56:27.698Z,20.62
2018-08-13T08:58:55.301Z,20.73
2018-08-13T09:01:24.036Z,20.79
2018-08-13T09:03:52.496Z,20.83
2018-08-13T09:06:20.127Z,20.82
2018-08-13T09:08:49.017Z,20.84
2018-08-13T09:11:16.635Z,20.88
2018-08-13T09:13:44.226Z,20.94
2018-08-13T09:16:12.139Z,20.99
2018-08-13T09:18:40.536Z,21.05
2018-08-13T09:21:08.163Z,21.10
2018-08-13T09:23:36.297Z,21.13
2018-08-13T09:26:03.964Z,21.16
2018-08-13T09:28:32.199Z,21.23
2018-08-13T09:31:00.137Z,21.30
2018-08-13T09:33:29.344Z,21.38
2018-08-13T09:35:57.821Z,21.49
2018-08-13T09:38:25.798Z,21.57
2018-08-13T09:40:55.022Z,21.64
2018-08-13T09:43:22.674Z,21.70
2018-08-13T09:45:51.326Z,21.73
2018-08-13T09:48:19.713Z,21.74
2018-08-13T09:50:47.335Z,21.76
2018-08-13T09:53:17.310Z,21.80
2018-08-13T09:55:46.469Z,21.86
2018-08-13T09:58:14.639Z,21.99
2018-08-13T10:00:48.429Z,22.18
2018-08-13T10:03:16.852Z,22.42
2018-08-13T10:05:45.605Z,22.64
2018-08-13T10:08:14.342Z,22.89
2018-08-13T10:10:41.945Z,23.13
2018-08-13T10:13:09.583Z,23.28
2018-08-13T10:15:37.544Z,23.40
2018-08-13T10:18:06.161Z,23.43
2018-08-13T10:20:33.772Z,23.41
2018-08-13T10:23:01.667Z,23.42
2018-08-13T10:25:29.299Z,23.39
2018-08-13T10:27:58.834Z,23.42
2018-08-13T10:30:26.741Z,23.52
2018-08-13T10:32:54.388Z,23.58
2018-08-13T10:35:22.662Z,23.65
2018-08-13T10:37:50.648Z,23.72
2018-08-13T10:40:19.646Z,23.76
2018-08-13T10:42:47.645Z,23.78
2018-08-13T10:45:17.770Z,23.82
2018-08-13T10:47:46.207Z,23.85
2018-08-13T10:50:14.180Z,23.88
2018-08-13T10:52:42.424Z,23.99
2018-08-13T10:55:10.136Z,24.17
2018-08-13T10:57:37.831Z,24.33
2018-08-13T11:00:05.871Z,24.40
2018-08-13T11:02:38.956Z,24.23
2018-08-13T11:05:08.067Z,23.95
2018-08-13T11:07:36.015Z,23.76
2018-08-13T11:10:06.747Z,23.35
2018-08-13T11:12:35.585Z,22.83
2018-08-13T11:15:03.621Z,22.50
2018-08-13T11:17:34.440Z,22.30
2018-08-13T11:20:03.347Z,22.13
2018-08-13T11:22:34.929Z,21.96
2018-08-13T11:25:02.732Z,21.80
2018-08-13T11:27:30.314Z,21.60
2018-08-13T11:29:58.411Z,21.33
2018-08-13T11:32:26.560Z,21.14
2018-08-13T11:34:55.172Z,20.94
2018-08-13T11:37:23.221Z,20.74
2018-08-13T11:39:52.742Z,20.57
2018-08-13T11:42:20.702Z,20.53
2018-08-13T11:44:50.361Z,20.53
2018-08-13T11:47:18.033Z,20.63
2018-08-13T11:49:48.687Z,20.70
2018-08-13T11:52:16.945Z,20.77
2018-08-13T11:54:45.196Z,20.81
2018-08-13T11:57:13.741Z,20.88
2018-08-13T11:59:41.647Z,20.93
2018-08-13T12:02:09.306Z,20.95
2018-08-13T12:04:37.334Z,21.01
2018-08-13T12:07:06.330Z,21.06
2018-08-13T12:09:33.966Z,21.07
2018-08-13T12:12:03.218Z,21.12
2018-08-13T12:14:30.838Z,21.27
2018-08-13T12:16:58.541Z,21.60
2018-08-13T12:19:26.449Z,21.87
2018-08-13T12:21:54.107Z,22.20
2018-08-13T12:24:22.497Z,22.29
2018-08-13T12:26:50.462Z,22.29
2018-08-13T12:29:18.504Z,22.19
2018-08-13T12:31:47.476Z,22.00
2018-08-13T12:34:16.610Z,22.00
2018-08-13T12:36:44.317Z,22.09
2018-08-13T12:39:13.144Z,21.98
2018-08-13T12:44:14.346Z,22.56
2018-08-13T12:46:43.545Z,22.69
2018-08-13T12:49:12.622Z,22.64
2018-08-13T12:51:40.297Z,22.59
2018-08-13T12:54:10.209Z,22.50
2018-08-13T12:56:39.440Z,22.41
2018-08-13T12:59:08.207Z,22.38
2018-08-13T13:01:36.391Z,22.37
2018-08-13T13:04:06.138Z,22.38
2018-08-13T13:06:34.631Z,22.34
2018-08-13T13:09:02.824Z,22.33
2018-08-13T13:11:31.468Z,22.29
2018-08-13T13:13:59.115Z,22.27
2018-08-13T13:16:27.355Z,22.26
2018-08-13T13:19:01.214Z,22.25
2018-08-13T13:21:28.868Z,22.20
2018-08-13T13:23:58.986Z,22.15
2018-08-13T13:26:26.927Z,22.09
2018-08-13T13:28:55.206Z,22.00
2018-08-13T13:31:23.447Z,21.96
2018-08-13T13:33:52.170Z,21.89
2018-08-13T13:36:20.415Z,21.85
2018-08-13T13:38:49.469Z,21.79
2018-08-13T13:41:18.991Z,21.73
2018-08-13T13:43:47.266Z,21.59
2018-08-13T13:46:18.581Z,21.41
2018-08-13T13:48:46.490Z,21.18
2018-08-13T13:51:14.755Z,20.99
2018-08-13T13:53:42.393Z,20.92
2018-08-13T13:56:10.637Z,20.84
2018-08-13T13:58:39.791Z,20.73
2018-08-13T14:01:07.637Z,20.59
2018-08-13T14:03:36.399Z,20.49
2018-08-13T14:06:05.692Z,20.44
2018-08-13T14:08:33.356Z,20.44
2018-08-13T14:11:01.459Z,20.46
2018-08-13T14:13:29.137Z,20.45
2018-08-13T14:15:57.343Z,20.37
2018-08-13T14:18:25.431Z,20.46
2018-08-13T14:20:53.031Z,21.07
2018-08-13T14:23:24.504Z,21.36
2018-08-13T14:25:53.405Z,21.33
2018-08-13T14:28:21.727Z,21.20
2018-08-13T14:30:49.926Z,21.22
2018-08-13T14:33:21.501Z,21.27
2018-08-13T14:35:49.935Z,21.41
2018-08-13T14:38:17.564Z,22.24
2018-08-13T14:40:45.487Z,23.25
2018-08-13T14:43:14.231Z,23.38
2018-08-13T14:45:41.899Z,23.17
2018-08-13T14:48:09.826Z,22.87
2018-08-13T14:50:37.557Z,22.60
2018-08-13T14:53:06.461Z,22.36
2018-08-13T14:55:34.402Z,22.20
2018-08-13T14:58:03.690Z,22.20
2018-08-13T15:00:35.388Z,22.21
2018-08-13T15:03:03.387Z,22.36
2018-08-13T15:05:31.101Z,22.53
2018-08-13T15:08:00.452Z,22.50
2018-08-13T15:10:28.646Z,22.29
2018-08-13T15:12:58.371Z,21.92
2018-08-13T15:15:26.118Z,21.44
2018-08-13T15:17:54.837Z,20.97
2018-08-13T15:20:24.995Z,20.33
2018-08-13T15:22:53.375Z,19.79
2018-08-13T15:25:22.398Z,19.34
2018-08-13T15:27:51.666Z,19.08
2018-08-13T15:30:19.357Z,18.85
2018-08-13T15:32:49.516Z,18.56
2018-08-13T15:35:17.395Z,18.27
2018-08-13T15:37:46.425Z,18.07
2018-08-13T15:40:14.600Z,17.91
2018-08-13T15:42:43.240Z,17.83
2018-08-13T15:45:10.848Z,17.81
2018-08-13T15:47:39.045Z,17.84
2018-08-13T15:50:06.793Z,18.24
2018-08-13T15:52:34.478Z,18.99
2018-08-13T15:55:02.480Z,19.70
2018-08-13T15:57:30.724Z,19.88
2018-08-13T15:59:59.399Z,19.99
2018-08-13T16:02:28.389Z,20.30
2018-08-13T16:04:57.686Z,20.81
2018-08-13T16:07:25.327Z,21.10
2018-08-13T16:09:53.264Z,20.91
2018-08-13T16:12:23.083Z,21.40
2018-08-13T16:14:51.337Z,22.44
2018-08-13T16:17:20.224Z,23.31
2018-08-13T16:19:48.791Z,24.08
2018-08-13T16:22:18.041Z,24.55
2018-08-13T16:24:47.045Z,24.82
2018-08-13T16:27:14.684Z,24.26
2018-08-13T16:29:42.315Z,23.16
2018-08-13T16:32:10.236Z,22.20
2018-08-13T16:34:38.031Z,21.45
2018-08-13T16:37:05.623Z,20.94
2018-08-13T16:39:33.546Z,20.60
2018-08-13T16:42:01.192Z,20.39
2018-08-13T16:44:28.833Z,20.28
2018-08-13T16:46:56.447Z,20.22
2018-08-13T16:49:24.099Z,20.19
2018-08-13T16:51:51.958Z,20.19
2018-08-13T16:54:19.566Z,20.12
2018-08-13T16:56:47.986Z,20.03
2018-08-13T16:59:15.866Z,19.93
2018-08-13T17:01:43.462Z,19.86
2018-08-13T17:04:11.135Z,19.82
2018-08-13T17:06:39.936Z,19.86
2018-08-13T17:09:07.573Z,19.89
2018-08-13T17:11:35.226Z,19.91
2018-08-13T17:14:04.545Z,19.91
2018-08-13T17:16:32.311Z,19.89
2018-08-13T17:19:02.388Z,19.89
2018-08-13T17:21:31.622Z,19.89
2018-08-13T17:23:59.299Z,19.86
2018-08-13T17:26:29.277Z,19.83
2018-08-13T17:28:57.187Z,19.79
2018-08-13T17:31:25.803Z,19.76
2018-08-13T17:33:53.415Z,19.73
2018-08-13T17:36:21.317Z,19.71
2018-08-13T17:38:49.706Z,19.69
2018-08-13T17:41:17.910Z,19.67
2018-08-13T17:43:46.657Z,19.64
2018-08-13T17:46:14.286Z,19.60
2018-08-13T17:48:41.911Z,19.56
2018-08-13T17:51:09.803Z,19.52
2018-08-13T17:53:38.335Z,19.50
2018-08-13T17:56:06.704Z,19.47
2018-08-13T17:58:35.181Z,19.45
2018-08-13T18:01:02.802Z,19.42
2018-08-13T18:03:30.438Z,19.41
2018-08-13T18:05:59.137Z,19.38
2018-08-13T18:08:26.756Z,19.36
2018-08-13T18:10:54.356Z,19.31
2018-08-13T18:13:22.296Z,19.28
2018-08-13T18:15:49.995Z,19.24
2018-08-13T18:18:17.585Z,19.19
2018-08-13T18:20:48.630Z,19.12
2018-08-13T18:23:16.278Z,19.08
2018-08-13T18:25:43.975Z,19.02
2018-08-13T18:28:12.009Z,18.98
2018-08-13T18:30:39.792Z,18.94
2018-08-13T18:33:07.440Z,18.90
2018-08-13T18:35:35.363Z,18.88
2018-08-13T18:38:04.631Z,18.84
2018-08-13T18:40:36.159Z,18.79
2018-08-13T18:43:10.988Z,18.76
2018-08-13T18:45:38.899Z,18.72
2018-08-13T18:48:07.077Z,18.67
2018-08-13T18:50:36.645Z,18.64
2018-08-13T18:53:07.237Z,18.58
2018-08-13T18:55:35.628Z,18.52
2018-08-13T18:58:08.889Z,18.48
2018-08-13T19:00:37.465Z,18.43
2018-08-13T19:03:05.749Z,18.39
2018-08-13T19:05:33.695Z,18.34
2018-08-13T19:08:02.497Z,18.29
2018-08-13T19:10:32.020Z,18.24
2018-08-13T19:13:00.796Z,18.21
2018-08-13T19:15:29.767Z,18.18
2018-08-13T19:17:57.539Z,18.15
2018-08-13T19:20:29.627Z,18.13
2018-08-13T19:22:59.045Z,18.11
2018-08-13T19:25:27.767Z,18.09
2018-08-13T19:28:01.643Z,18.07
2018-08-13T19:30:30.217Z,18.06
2018-08-13T19:32:59.302Z,18.04
2018-08-13T19:35:40.654Z,18.05
2018-08-13T19:38:09.198Z,18.03
2018-08-13T19:40:39.699Z,18.02
2018-08-13T19:43:08.614Z,17.99
2018-08-13T19:45:43.447Z,17.97
2018-08-13T19:48:12.428Z,17.95
2018-08-13T19:50:41.863Z,17.96
2018-08-13T19:56:06.549Z,17.95
2018-08-13T19:58:37.548Z,17.95
2018-08-13T20:01:05.866Z,17.97
2018-08-13T20:03:34.977Z,17.95
2018-08-13T20:06:02.643Z,17.95
2018-08-13T20:08:30.316Z,17.94
2018-08-13T20:11:00.199Z,17.93
2018-08-13T20:13:29.524Z,17.89
2018-08-13T20:16:01.900Z,17.87
2018-08-13T20:18:29.791Z,17.83
2018-08-13T20:20:57.414Z,17.81
2018-08-13T20:23:25.970Z,17.79
2018-08-13T20:25:54.869Z,17.75
2018-08-13T20:31:18.569Z,17.67
2018-08-13T20:33:47.968Z,17.64
2018-08-13T20:36:16.285Z,17.62
2018-08-13T20:38:46.542Z,17.60
2018-08-13T20:41:18.315Z,17.60
2018-08-13T20:43:47.492Z,17.59
2018-08-13T20:46:15.569Z,17.57
2018-08-13T20:48:44.271Z,17.56
2018-08-13T20:51:13.841Z,17.56
2018-08-13T20:53:42.043Z,17.55
2018-08-13T20:56:10.451Z,17.52
2018-08-13T20:58:39.489Z,17.49
2018-08-13T21:01:07.671Z,17.49
2018-08-13T21:03:42.571Z,17.49
2018-08-13T21:06:12.015Z,17.49
2018-08-13T21:08:40.231Z,17.50
2018-08-13T21:11:08.222Z,17.54
2018-08-13T21:13:36.555Z,17.52
2018-08-13T21:16:07.917Z,17.50
2018-08-13T21:18:36.662Z,17.49
2018-08-13T21:21:06.507Z,17.48
2018-08-13T21:23:35.825Z,17.46
2018-08-13T21:26:03.767Z,17.44
2018-08-13T21:28:31.738Z,17.43
2018-08-13T21:31:00.272Z,17.43
2018-08-13T21:33:31.838Z,17.42
2018-08-13T21:35:59.430Z,17.41
2018-08-13T21:38:27.085Z,17.43
2018-08-13T21:40:58.583Z,17.45
2018-08-13T21:43:29.952Z,17.43
2018-08-13T21:45:57.827Z,17.39
2018-08-13T21:48:27.450Z,17.35
2018-08-13T21:50:56.396Z,17.32
2018-08-13T21:53:30.583Z,17.31
2018-08-13T21:56:01.972Z,17.28
2018-08-13T21:58:30.607Z,17.28
2018-08-13T22:01:03.409Z,17.29
2018-08-13T22:03:32.542Z,17.27
2018-08-13T22:06:01.791Z,17.27
2018-08-13T22:08:29.403Z,17.28
2018-08-13T22:10:59.053Z,17.26
2018-08-13T22:13:30.527Z,17.25
2018-08-13T22:15:58.289Z,17.24
2018-08-13T22:18:25.923Z,17.23
2018-08-13T22:20:55.623Z,17.20
2018-08-13T22:23:23.212Z,17.21
2018-08-13T22:25:51.422Z,17.19
2018-08-13T22:28:20.253Z,17.18
2018-08-13T22:30:48.062Z,17.17
2018-08-13T22:33:16.825Z,17.16
2018-08-13T22:35:47.552Z,17.15
2018-08-13T22:38:15.438Z,17.15
2018-08-13T22:40:43.027Z,17.13
2018-08-13T22:43:10.652Z,17.13
2018-08-13T22:45:38.363Z,17.11
2018-08-13T22:48:06.002Z,17.09
2018-08-13T22:50:36.558Z,17.08
2018-08-13T22:53:04.152Z,17.06
2018-08-13T22:55:32.033Z,17.05
2018-08-13T22:58:00.801Z,17.04
2018-08-13T23:00:28.531Z,17.04
2018-08-13T23:02:56.456Z,17.04
2018-08-13T23:05:25.124Z,17.03
2018-08-13T23:07:53.776Z,17.03
2018-08-13T23:10:23.311Z,17.03
2018-08-13T23:12:51.276Z,17.03
2018-08-13T23:15:19.588Z,17.06
2018-08-13T23:17:47.361Z,17.10
2018-08-13T23:20:15.019Z,17.15
2018-08-13T23:22:42.903Z,17.19
2018-08-13T23:25:10.528Z,17.25
2018-08-13T23:27:40.127Z,17.30
2018-08-13T23:30:08.034Z,17.35
2018-08-13T23:32:36.240Z,17.40
2018-08-13T23:35:05.025Z,17.45
2018-08-13T23:37:33.625Z,17.49
2018-08-13T23:40:01.220Z,17.52
2018-08-13T23:42:29.426Z,17.55
2018-08-13T23:44:57.050Z,17.59
2018-08-13T23:47:24.699Z,17.61
2018-08-13T23:49:52.390Z,17.63
2018-08-13T23:52:20.415Z,17.66
2018-08-13T23:54:48.026Z,17.69
2018-08-13T23:57:15.616Z,17.69
2018-08-13T23:59:43.599Z,17.72
